2016 Tennessee Pass Night Jam Results!

Web-Size

 

 

 

 

95 Racers with amazing conditions for the 16th Annual Night Jam under a full moon! Huge thanks to the Crew at Tennessee Pass Cookhouse and Nordic Center for allowing us to utilize their amazing facilities, and for the wonderful food and hospitality! Thanks Jay Ruckert for the awesome photo! Here are the results:

Place Age Name Hometown Category Bib # Time
1 35 Rebecca gross golden Female 213 1:09:31
2 52 Wendy ingraham Castle rock Female 223 1:19:25
3 39 Kelly hofer Leadville Female 220 1:20:02
4 37 Ann Stanek Leadville Female 221 1:21:38
5 36 Tracy Thelen Colorado Springs Female 211 1:22:28
6 49 Roxanne hall Leadville Female 209 1:25:04
7 44 Lisa isom Tennessee pass Female 210 1:26:33
8 34 Leigh Bowe Frisco Female 218 1:27:30
9 45 Susan Leadville Female 217 1:35:55
10 49 Wendy slavin Leadville Female 216 1:42:02
11 33 Leah montgomery Colorado springs Female 215 1:47:21
12 30 Amelia Vonesh Avon, co Female 212 1:49:23
13 34 Becca Katz Leadville Female 222 1:54:29
14 39 Heidi Colley Leadville Female 224 2:19:32
15 46 Lisa Fortuna Boulder Female 214
16 17 Summer Herout Buena Vista Female 219
17 30 Abbie Yarger Louisville Female 225
Place Age Name Hometown Category Bib # Time
1 47 Edward Oliver Littleton Male 350 0:57:44
2 35 Brett Billings Colorado Springs Male 348 0:58:58
3 53 Mark Wallace Golden Male 392 0:58:59
4 37 Marvin Sandoval Leadville Male 373 1:00:52
5 43 Jason Russell Edwards Male 327 1:01:12
6 48 Paul Von Boeck Colorado springs Male 343 1:01:39
7 33 Cameron Millard Leadville Male 391 1:02:40
8 39 Chad Melis Lyons Male 334 1:02:51
9 39 Aaron Provance Boulder Male 360 1:03:42
10 50 Darron cheek Blue river Male 355 1:04:02
11 37 Nick thelen Co springs Male 333 1:04:38
12 44 Jim tyerech Parker Male 339 1:05:15
13 40 Chris Borton BV Male 358 1:05:26
14 49 Ty hall Leadville Male 324 1:05:31
15 48 Jeff Sellers Buena Vista Male 374 1:05:51
16 36 robin guillaume buena vista Male 353 1:06:27
17 42 Mark Walker Salida Male 359 1:06:37
18 41 Cooper Mallozzi Leadville Male 380 1:07:18
19 25 Jeff Cheever Vail Male 365 1:07:28
20 40 Garren watkins Boulder Male 342 1:07:34
21 41 Jason winkler Morrison, co. Male 338 1:07:43
22 49 frank borzager fort collins Male 346 1:08:02
23 50 Dan Buehler Parker, CO Male 379 1:08:09
24 33 Daniel Byrd Colorado Springs Male 349 1:08:09
25 26 Miles gentry Minturn Male 330 1:08:18
26 39 Brad Bingham Steamboat Springs Male 328 1:08:26
27 39 Josh Colley Leadville Male 390 1:09:26
28 28 Tom Judge Leadville Male 385 1:09:34
29 37 Keith Amodio Denver Male 363 1:10:22
30 40 Jeff Steinhoff Monument Male 340 1:12:07
31 41 Dave Draschil Lakewood Male 354 1:12:11
32 43 Mark Stevens Palmer Lake Male 369 1:14:13
34 30 Jonah Creasy San Francisco, CA Male 389 1:14:26
35 41 Brian Stephenson Fort collins Male 332 1:14:43
36 36 PAUL ANDERSON LEADVILLE, CO Male 356 1:16:32
37 28 Dan Findley Avon, CO Male 361 1:17:18
38 33 Jesse Green Boulder Male 345 1:17:34
39 36 Ryan Burnett Arvada Male 329 1:17:39
40 57 Trent Hovenga Colorado Springs Male 367 1:17:48
41 45 Brian Van Voorhees Arvada Male 368 1:17:52
42 41 andy baldassar leadville Male 375 1:17:57
43 50 Karl Krupp Avon Male 352 1:19:27
44 43 Tyler watkins Leadville Male 335 1:24:00
45 33 Brandon Mapes Leadville Male 394 1:25:50
46 29 Mark zurbrick Denver Male 387 1:26:27
47 43 Innes Isom Ten pass Male 331 1:26:32
48 50 Jack Serra Highlands Ranch Male 341 1:27:06
49 59 Ed Poremba Colorado Springs Male 382 1:29:34
50 26 Brandon Snider Leadville Male 344 1:30:07
51 47 Chris Morton Leadville Male 393 1:30:17
52 23 Zach Yellen Colorado Springs Male 386 1:31:06
53 54 Eric Johnson Breckenridge bridge e Male 381 1:34:31
54 57 Gregory Blakely Englewood Male 351 1:35:51
55 51 Stewart fish Wheat Ridge Male 366 1:35:57
56 29 Tyler boyd Denver Male 383 1:36:00
57 46 Scot Marana Eagle Male 337 1:36:02
58 44 Duane fonner Colorado springs Male 371 1:47:27
59 30 Brian Sebade Laramie, Wy Male 357 1:49:27
60 44 Brent sites Salida Male 377 1:51:23
61 63 max creasy Mercer Male 388 1:53:18
62 28 Alan Edwards Longmont, Co Male 325 1:55:53
63 51 Richard Omeara Highlands Ranch Male 376 1:55:57
64 45 Mark brown Colorado Springs, co Male 326
65 32 Jimmy Vonesh Avon Male 336
66 46 Matthew Hall Colorado Springs Male 347
67 42 Bernie Romero Dillon Male 362
68 30 Rich Finn Leadville Male 364
69 17 Zac green Buena Male 370
70 15 brian burr buena vista CO Male 372
71 50 Shawn Gillis Salida Male 378
72 33 Matt Postage Pittsburgh Male 384
Place Age Name Hometown Category Bib # Time
1 37 Eric Cutlip PBville Male Singlespeed 28 1:04:52
2 45 devin dahl buena vista Male Singlespeed 31 1:08:36
3 28 Abram Janson Denver Male Singlespeed 29 1:45:38
4 26 Quinn Stauffer Fort collins Male Singlespeed 30
Place Age Name Hometown Category Bib # Time
1 14 Camden Gillis Salida Junior 498 1:07:23
2 16 Sam Serra Highlands Ranch Junior 497 1:36:38
3 13 Chris Anderson Castle Rock Junior 496 1:44:15

2016 WinterBike Results

Overall
Place Bib# Name Hometwon Time
1 145 Brad Bingham Steamboat Springs 0:45:13
2 111 Maxfield LaFortune Denver 0:50:55
3 105 Darron cheek Blue River 0:51:24
4 152 Michael lange Golden 0:54:00
5 187 Jeff Cospolich Breckenridge 0:55:11
6 181 Olaf richter Denver 0:56:29
7 178 Aaron Provance Boulder 0:56:34
8 206 Eric Cutlip Leadville 0:56:35
9 184 Chris smith Golden 0:56:44
10 185 Scott McCalmon Boulder 0:56:48
11 176 Marvin sandoval Leadville 0:56:49
12 190 Joe risavi Arvada 0:57:22
13 115 David Elphingsrone Boulder 0:57:48
14 154 Brian Hannon Boulder 0:58:34
15 142 Garren Watkins Boulder 0:58:46
16 180 Robin guillaume Burma vista 1:00:32
17 129 Chris watts Arvada 1:00:59
18 108 Riley bartz Frisco 1:01:00
19 480 Tom Judge Leadville 1:01:12
20 197 Dave Clark-Barol Leadville 1:01:14
21 117 Ryan Stewart Golden 1:02:11
22 304 Julie Dibens Boulder 1:02:41
23 482 Thane wright Keystone 1:02:51
24 312 Rebecca gross Golden 1:02:54
25 135 Mark Stevens Palmer Lake 1:03:05
26 193 Jeff Sellers Buena vista 1:03:12
27 317 Judy Freeman Boulder 1:03:15
28 133 Jeff Watrobka Gilden 1:03:18
29 101 Jim tyerech Parker 1:03:19
30 144 Jason Winkler Morrison 1:03:25
31 488 Scott Eckstrom Canon City 1:03:40
32 146 Dana Franklin 1:04:06
33 121 Mike Maxwell 1:04:57
34 127 Bill Boughton Aspen Co 1:05:18
35 490 Jeff Cheever Parker 1:05:40
36 164 Peter Thomas Denver 1:05:54
37 134 Ryan Burnett Arvada 1:06:21
38 196 Johnny Hughes Buena vista 1:06:41
39 140 Matt Dahman Lakewood 1:07:26
40 319 Leigh Bowe Frisco 1:07:32
41 155 Paul Anderson Leadville 1:08:06
42 182 Jake Blevins Littleton 1:08:08
43 183 Pat white Evergreen 1:08:21
44 136 Brad Baker Monument 1:09:00
45 208 Devin dahl Bv 1:09:01
46 137 Jeff steinhoff Monument 1:09:02
47 321 Jennifer Moos Fort Lauderdale, FL 1:09:07
48 489 Shawn Weatherill Canon city 1:09:12
49 103 Jamie becker Denver 1:09:14
50 177 Matthew Hall Colorado springs 1:09:20
51 481 Andy badass Leadville 1:10:32
52 130 Jim arnold Copper 1:10:36
53 113 Dave camara Pine co 1:11:36
54 311 Lisa fortuna Boulder 1:11:39
55 192 Shawn Gillis Salida 1:11:41
56 200 Mark wallace Golden 1:11:41
57 195 Patrick Payne Salida, CO 1:11:54
58 110 Vitaly Gubarev Colorado springs 1:12:02
59 150 Ryan Good Littleton 1:12:23
60 171 Greg mueller Eagle co 1:12:38
61 139 Brian Stephenson Fort Collins 1:12:44
62 147 Chuck watson Denver 1:12:47
63 149 Kristopher simpns Denver 1:13:08
64 166 Keith amodio Denver 1:13:28
65 186 Richard omeRa 1:13:31
66 122 Gregory Blakely Englewood 1:13:34
67 175 Daniel Balderrama Colorado Springs 1:13:56
68 484 Jack Serra Hr, co 1:13:58
69 132 Samer Khodor Evergreen, CO 1:14:19
70 188 Karl krupp Avon 1:14:20
71 26 Austin Burt Glenwood Springs 1:15:29
72 116 Mark Horn Mission, KS 1:15:45
73 207 Keith deluca Fort collins 1:16:00
74 102 Brian Huggins Parker 1:16:51
75 27 Sam Serra Highlands Ranch 1:17:10
76 165 Michael chavez Leadville 1:17:15
77 483 Johnny Watkins Leadville 1:17:39
78 486 Eric olson Silverthorne 1:19:18
79 189 Todd huck Avon 1:19:59
80 487 Jeremy barry Dillon 1:21:03
81 125 Thomas johnson Leadville co 1:21:18
82 493 Nic degross Carbondale 1:21:59
83 494 Dawes wilson Vail 1:22:16
84 323 Jessi Rochel Carbondale 1:22:34
85 305 Vanessa Pineda Golden 1:22:39
86 112 Bart wolczyk Golden 1:22:39
87 128 Michael Bowerman Gypsum 1:22:55
88 322 Becca Katz Leadville 1:23:42
89 104 dave asselin Louisville 1:23:42
90 107 Thomas seybold Evergreen 1:23:48
91 191 Jimmy bisese Salida 1:23:49
92 485 Eric Johnson Breckenridge 1:23:55
93 170 Bob Hufnagel Alma 1:24:44
94 100 Chris Owen Monticello, Illinois 1:24:46
95 160 Butch McGuire 1:24:49
96 168 Randy Tuggle G’wood 1:25:30
97 306 Janet wolfson Silverthorne 1:26:19
98 126 Kurt Grimm Conifer 1:26:20
99 198 Chad Devitt Denver 1:26:27
100 118 Matt Bay city 1:26:35
101 123 Edward Greene Eagle co 1:27:59
102 24 Ian Fromm Golden 1:28:01
103 194 Robert schofield Denver 1:28:10
104 114 Chris Lovely Frisco 1:28:21
105 141 Sam inman Littleton 1:28:38
106 156 Jason Kline Wheat Ridge 1:28:56
107 190 Joe Risavi Arvada 1:28:59
108 157 Chris Ball Golden 1:29:38
109 162 Andrew lydens Littleton 1:29:39
110 159 Tugboat Littleton 1:29:39
111 318 Katie anderson Leadville 1:32:05
112 492 Dustball Denver 1:32:20
113 143 Blake Elrod frisco 1:32:21
114 495 Brandon Mapes Leadville 1:32:26
115 158 Ray Titus Denver 1:32:53
116 138 Tom Economou Morrison, CO 1:33:11
117 153 Brad York Leadville 1:34:38
118 161 Dugan smith Ken Caryl 1:38:19
119 316 Linda McLean Grand Junction 1:38:20
120 124 Steven squier Leadville 1:39:03
121 199 Brandon Snider Leadville 1:42:50
122 179 Scott Davis Maple Grove mn 1:42:51
123 163 Jeff Pearson Evergreen, CO 1:44:58
124 106 Sandoval Colorado springs 1:45:31
125 119 Gregory weiss Highlands ranch, co 1:45:36
126 131 Voytek Bobak Littleton 1:46:01
127 173 Scott Swandal Colorado Springs 1:47:34

Men’s Open

2016 WinterBIke Final Results
Men’s Open
Place Bib# Name Hometown Time
1 145 Brad Bingham Steamboat Springs 0:45:13
2 111 Maxfield LaFortune Denver 0:50:55
3 105 Darron cheek Blue River 0:51:24
4 152 Michael lange Golden 0:54:00
5 187 Jeff Cospolich Breckenridge 0:55:11
6 181 Olaf richter Denver 0:56:29
7 178 Aaron Provance Boulder 0:56:34
8 184 Chris smith Golden 0:56:44
9 185 Scott McCalmon Boulder 0:56:48
10 176 Marvin sandoval Leadville 0:56:49
11 190 Joe risavi Arvada 0:57:22
12 115 David Elphingsrone Boulder 0:57:48
13 154 Brian Hannon Boulder 0:58:34
14 142 Garren Watkins Boulder 0:58:46
15 180 Robin guillaume Burma vista 1:00:32
16 129 Chris watts Arvada 1:00:59
17 108 Riley bartz Frisco 1:01:00
18 480 Tom Judge Leadville 1:01:12
19 197 Dave Clark-Barol Leadville 1:01:14
20 117 Ryan Stewart Golden 1:02:11
21 482 Thane wright Keystone 1:02:51
22 135 Mark Stevens Palmer Lake 1:03:05
23 193 Jeff Sellers Buena vista 1:03:12
24 133 Jeff Watrobka Gilden 1:03:18
25 101 Jim tyerech Parker 1:03:19
26 144 Jason Winkler Morrison 1:03:25
27 488 Scott Eckstrom Canon City 1:03:40
28 146 Dana Franklin 1:04:06
29 121 Mike Maxwell 1:04:57
30 127 Bill Boughton Aspen Co 1:05:18
31 490 Jeff Cheever Parker 1:05:40
32 164 Peter Thomas Denver 1:05:54
33 134 Ryan Burnett Arvada 1:06:21
34 196 Johnny Hughes Buena vista 1:06:41
35 140 Matt Dahman Lakewood 1:07:26
36 155 Paul Anderson Leadville 1:08:06
37 182 Jake Blevins Littleton 1:08:08
38 183 Pat white Evergreen 1:08:21
39 136 Brad Baker Monument 1:09:00
40 137 Jeff steinhoff Monument 1:09:02
41 489 Shawn Weatherill Canon city 1:09:12
42 103 Jamie becker Denver 1:09:14
43 177 Matthew Hall Colorado springs 1:09:20
44 481 Andy badass Leadville 1:10:32
45 130 Jim arnold Copper 1:10:36
46 113 Dave camara Pine co 1:11:36
47 192 Shawn Gillis Salida 1:11:41
48 195 Patrick Payne Salida, CO 1:11:54
49 110 Vitaly Gubarev Colorado springs 1:12:02
50 150 Ryan Good Littleton 1:12:23
51 171 Greg mueller Eagle co 1:12:38
52 139 Brian Stephenson Fort Collins 1:12:44
53 147 Chuck watson Denver 1:12:47
54 149 Kristopher simpns Denver 1:13:08
55 166 Keith amodio Denver 1:13:28
56 186 Richard omeRa 1:13:31
57 122 Gregory Blakely Englewood 1:13:34
58 175 Daniel Balderrama Colorado Springs 1:13:56
59 484 Jack Serra Hr, co 1:13:58
60 132 Samer Khodor Evergreen, CO 1:14:19
61 188 Karl krupp Avon 1:14:20
62 116 Mark Horn Mission, KS 1:15:45
63 102 Brian Huggins Parker 1:16:51
64 165 Michael chavez Leadville 1:17:15
65 483 Johnny Watkins Leadville 1:17:39
66 486 Eric olson Silverthorne 1:19:18
67 189 Todd huck Avon 1:19:59
68 487 Jeremy barry Dillon 1:21:03
69 125 Thomas johnson Leadville co 1:21:18
70 493 Nic degross Carbondale 1:21:59
71 494 Dawes wilson Vail 1:22:16
72 112 Bart wolczyk Golden 1:22:39
73 128 Michael Bowerman Gypsum 1:22:55
74 104 dave asselin Louisville 1:23:42
75 107 Thomas seybold Evergreen 1:23:48
76 191 Jimmy bisese Salida 1:23:49
77 485 Eric Johnson Breckenridge 1:23:55
78 170 Bob Hufnagel Alma 1:24:44
79 100 Chris Owen Monticello, Illinois 1:24:46
80 160 Butch McGuire 1:24:49
81 168 Randy Tuggle G’wood 1:25:30
82 126 Kurt Grimm Conifer 1:26:20
83 198 Chad Devitt Denver 1:26:27
84 118 Matt Bay city 1:26:35
85 123 Edward Greene Eagle co 1:27:59
86 194 Robert schofield Denver 1:28:10
87 114 Chris Lovely Frisco 1:28:21
88 141 Sam inman Littleton 1:28:38
89 156 Jason Kline Wheat Ridge 1:28:56
90 190 Joe Risavi Arvada 1:28:59
91 157 Chris Ball Golden 1:29:38
92 162 Andrew lydens Littleton 1:29:39
93 159 Tugboat Littleton 1:29:39
94 492 Dustball Denver 1:32:20
95 143 Blake Elrod frisco 1:32:21
96 495 Brandon Mapes Leadville 1:32:26
97 158 Ray Titus Denver 1:32:53
98 138 Tom Economou Morrison, CO 1:33:11
99 153 Brad York Leadville 1:34:38
100 161 Dugan smith Ken Caryl 1:38:19
101 124 Steven squier Leadville 1:39:03
102 199 Brandon Snider Leadville 1:42:50
103 179 Scott Davis Maple Grove mn 1:42:51
104 163 Jeff Pearson Evergreen, CO 1:44:58
105 106 Sandoval Colorado springs 1:45:31
106 119 Gregory weiss Highlands ranch, co 1:45:36
107 131 Voytek Bobak Littleton 1:46:01
108 173 Scott Swandal Colorado Springs 1:47:34

 

Women’s Open

Womens Open
Place BIb# Name Hometown Time
1 304 Julie Dibens Boulder 1:02:41
2 312 Rebecca gross Golden 1:02:54
3 317 Judy Freeman Boulder 1:03:15
4 319 Leigh Bowe Frisco 1:07:32
5 321 Jennifer Moos Fort Lauderdale, FL 1:09:07
6 311 Lisa fortuna Boulder 1:11:39
7 323 Jessi Rochel Carbondale 1:22:34
8 305 Vanessa Pineda Golden 1:22:39
9 322 Becca Katz Leadville 1:23:42
10 306 Janet wolfson Silverthorne 1:26:19
11 318 Katie anderson Leadville 1:32:05
12 316 Linda McLean Grand Junction 1:38:20

 

SingleSpeed

SingleSpeed
Place Bib# Name Hometown Time
1 206 Eric Cutlip Leadville 0:56:35
2 208 Devin dahl Bv 1:09:01
3 200 Mark wallace Golden 1:11:41
4 207 Keith deluca Fort collins 1:16:00

 

Junior

Juniors
Place Bib# Name Hometown Time
1 26 Austin Burt Glenwood Springs 1:15:29
2 27 Sam Serra Highlands Ranch 1:17:10
3 24 Ian Fromm Golden 1:28:01

2016 WinterBike

The Leadville Winter Mountain Bike Series started with a full moon last night at Copper Mtn! Great conditions and a lot of hard work from the employees at Copper Mtn. and all the great volunteers from the Cloud City Wheelers; made an amazing night! 127 finishers! Thanks to everyone for coming out! See you at the 16th Annual Tennessee Pass Night Jam on Feb 20.

Results!

IMG_0051 IMG_0058 IMG_0063 IMG_0138

2015 WinterBike @ Copper Mtn Results!

2015 copper pic

Jay Ruckert Photography

First race of the 2015 season was a huge success! Demos all day from Cycles of Life, REEB Cycles, Twenty2 Cycles,  Rocky Mountain, and Breck Bike Guides, got a lot of people introduced to this awesome sport.

 

Huge thanks to the amazing work from all the people at Copper!

 

Please share your photos and videos on our Facebook page.

 

See you at Tennessee Pass on Feb. 7th!!!!!!!

Overall                                                                                               Mens                                                                                        Womens                                   Singlespeed

Position Time BIB # Participant Position Time BIB # Participant Position Time BIB # Participant Position Time BIB # Participant
1 0:49:06 251 Brad Bingham 1 0:49:06 251 Brad Bingham 1 0:59:44 161 Hannah Williams 1 0:59:42 311 Chris Plesko
2 0:52:49 232 Cameron Chambers 2 0:52:49 232 Cameron Chambers 2 1:07:48 176 Julie Dibbons 2 1:00:24 313 Eric Cutlip
3 0:53:38 263 Seth Michael 3 0:53:38 263 Seth Michael 3 1:11:09 173 Sidney Fox 3 1:03:45 312 Mark Wallace
4 0:55:19 283 Nick Truitt 4 0:55:19 283 Nick Truitt 4 1:13:16 179 Rebecca Gross 4 1:11:38 308 Spencer Peet
5 0:55:44 377 Derek Bissett 5 0:55:44 377 Derek Bissett 5 1:17:06 157 Tracy Thelen 5 1:14:32 309 Quinn Stanffer
6 0:55:51 242 Marvin Sandoval 6 0:55:51 242 Marvin Sandoval 6 1:18:34 170 Jennifer Barbour 6 1:22:29 307 Michael Chavez
7 0:57:09 245 Jon Freckleton 7 0:57:09 245 Jon Freckleton 7 1:19:46 159 Catherine Roberts 7 1:34:05 310 Alan Johnson
8 0:57:55 379 Dave Maschnisi 8 0:57:55 379 Dave Maschnisi 8 1:23:07 162 Leigh Bouve
9 0:58:28 247 Jurgen Bergeron 9 0:58:28 247 Jurgen Bergeron 9 1:26:57 158 Lori Antolec
10 0:58:41 219 Nick Thenen 10 0:58:41 219 Nick Thenen 10 1:28:16 172 Katie Anderson
11 0:59:18 276 Jeff Cospolich 11 0:59:18 276 Jeff Cospolich 11 1:30:04 171 Kristi Olsen
12 0:59:26 206 David Elphingstone 12 0:59:26 206 David Elphingstone 12 1:32:19 175 Wendy Ingraham
13 0:59:42 311 Chris Plesko 15 1:00:11 238 Chad Mellis 13 1:34:14 174 Alison Sandoval
14 0:59:44 161 Hannah Williams 17 1:01:01 354 Wesley Sandoval 14 1:34:36 156 Twyla Gurlea
15 1:00:11 238 Chad Mellis 18 1:01:11 202 Charlie Knoll 15 1:36:28 163 Dina Klancir
16 1:00:24 313 Eric Cutlip 19 1:01:38 239 Darron Cheek 16 1:39:08 165 Amy Graysmith
17 1:01:01 354 Wesley Sandoval 20 1:01:57 351 John Heisdorf 17 1:44:17 169 Jessi Rochel
18 1:01:11 202 Charlie Knoll 21 1:02:08 258 Kurt Ireland 18 1:48:36 168 Emily Murray
19 1:01:38 239 Darron Cheek 22 1:03:08 214 Justin Holle 19 1:59:28 180 Tracy Johnston
20 1:01:57 351 John Heisdorf 23 1:03:38 261 Brett Ebben 20 DNF 160 Heidi Dohse
21 1:02:08 258 Kurt Ireland 24 1:03:42 364 Jon Davis 21 DNF 164 Sandra Marticio
22 1:03:08 214 Justin Holle 25 1:03:44 295 Joseph Papa 22 DNF 166 Eileen Brown
23 1:03:38 261 Brett Ebben 27 1:04:09 228 Keith DelLuca 23 DNF 167 Susan McCotter
24 1:03:42 364 Jon Davis 28 1:04:12 296 Travis Ekenberg 24 DNF 177 DNF – Taylor Dilly
25 1:03:44 295 Joseph Papa 29 1:04:56 217 Mark Stevens 25 DNF 178 Paula McNeil
26 1:03:45 312 Mark Wallace 30 1:05:04 376 Matt McIsaac
27 1:04:09 228 Keith DelLuca 31 1:06:54 378 Lou Laurina
28 1:04:12 296 Travis Ekenberg 32 1:07:08 252 Tim Moore
29 1:04:56 217 Mark Stevens 33 1:07:18 271 Samuel Naffziger
30 1:05:04 376 Matt McIsaac 35 1:08:08 216 Jeff Steinhoff
31 1:06:54 378 Lou Laurina 36 1:09:07 350 Paul Anderson
32 1:07:08 252 Tim Moore 37 1:09:10 275 Greg Bachman
33 1:07:18 271 Samuel Naffziger 38 1:09:14 282 Jon Harman
34 1:07:48 176 Julie Dibbons 39 1:09:23 299 Peter Thomas
35 1:08:08 216 Jeff Steinhoff 40 1:09:40 259 Jake Schuppe
36 1:09:07 350 Paul Anderson 41 1:09:51 287 Brett Billings
37 1:09:10 275 Greg Bachman 42 1:09:52 352 Barry Davis
38 1:09:14 282 Jon Harman 43 1:10:44 266 Frank Walker
39 1:09:23 299 Peter Thomas 44 1:10:50 203 Matt Dahman
40 1:09:40 259 Jake Schuppe 46 1:11:31 367 Chris Borton
41 1:09:51 287 Brett Billings 48 1:11:51 370 Pat White
42 1:09:52 352 Barry Davis 49 1:12:07 223 Jesse Pisei
43 1:10:44 266 Frank Walker 50 1:13:14 356 Marti Remo
44 1:10:50 203 Matt Dahman 52 1:13:51 248 Brian Huggins
45 1:11:09 173 Sidney Fox 54 1:14:45 237 Esteban Lipshire
46 1:11:31 367 Chris Borton 56 1:15:17 236 Dave Link
47 1:11:38 308 Spencer Peet 57 1:15:42 234 Roberts Martin
48 1:11:51 370 Pat White 58 1:16:06 220 Dylan Zurflah
49 1:12:07 223 Jesse Pisei 59 1:16:18 380 Brandon Mapes
50 1:13:14 356 Marti Remo 60 1:16:26 280 Larry Manchester
51 1:13:16 179 Rebecca Gross 62 1:17:13 226 Lorenzo Silvestri
52 1:13:51 248 Brian Huggins 63 1:17:16 270 Karl Krupp
53 1:14:32 309 Quinn Stanffer 64 1:17:18 262 Andrew Smith
54 1:14:45 237 Esteban Lipshire 65 1:17:32 240 Scott Vinas
55 1:15:11 314 Jeremiah King 66 1:17:33 384 Gavin Gunderson
56 1:15:17 236 Dave Link 67 1:17:35 243 Brandon Snider
57 1:15:42 234 Roberts Martin 68 1:18:23 229 Charles Wernig
58 1:16:06 220 Dylan Zurflah 69 1:18:26 256 Richard Finn
59 1:16:18 380 Brandon Mapes 70 1:18:28 218 Greg Scott
60 1:16:26 280 Larry Manchester 72 1:19:20 383 Tyler Watkins
61 1:17:06 157 Tracy Thelen 73 1:19:38 355 Earnie Johnson
62 1:17:13 226 Lorenzo Silvestri 75 1:19:50 205 Derek Henry
63 1:17:16 270 Karl Krupp 76 1:19:52 274 Todd Huck
64 1:17:18 262 Andrew Smith 77 1:19:53 284 Jack Serra
65 1:17:32 240 Scott Vinas 78 1:20:13 235 Paul Raemen
66 1:17:33 384 Gavin Gunderson 79 1:20:15 359 Richard Oimeara
67 1:17:35 243 Brandon Snider 80 1:20:22 293 Eric Olson
68 1:18:23 229 Charles Wernig 81 1:20:41 362 Mike Bailey
69 1:18:26 256 Richard Finn 82 1:20:49 213 Steve McDonald
70 1:18:28 218 Greg Scott 83 1:21:49 246 Thomas Seybold
71 1:18:34 170 Jennifer Barbour 84 1:21:50 374 Voytek Bobak
72 1:19:20 383 Tyler Watkins 85 1:22:05 381 Andy Baldassar
73 1:19:38 355 Earnie Johnson 86 1:22:14 221 Rhett Dacuag
74 1:19:46 159 Catherine Roberts 89 1:23:42 204 Sam Inman
75 1:19:50 205 Derek Henry 90 1:24:23 298 Trent Hovensa
76 1:19:52 274 Todd Huck 91 1:24:45 289 Aaron Rimmer
77 1:19:53 284 Jack Serra 92 1:24:49 281 Ken Keister
78 1:20:13 235 Paul Raemen 93 1:26:18 222 Dennis Staley
79 1:20:15 359 Richard Oimeara 94 1:26:26 249 Stephen Wassinger
80 1:20:22 293 Eric Olson 95 1:26:30 277 Butch McGuire
81 1:20:41 362 Mike Bailey 96 1:26:37 290 Steuart Fish
82 1:20:49 213 Steve McDonald 98 1:27:50 286 Otto Schmidtmann
83 1:21:49 246 Thomas Seybold 99 1:27:52 288 Matthew Hall
84 1:21:50 374 Voytek Bobak 101 1:28:30 257 Mark Zurbrick
85 1:22:05 381 Andy Baldassar 102 1:28:34 233 Vitaly Gubarer
86 1:22:14 221 Rhett Dacuag 103 1:28:48 387 Jurgem Leiser
87 1:22:29 307 Michael Chavez 104 1:28:54 227 Chris Lovely
88 1:23:07 162 Leigh Bouve 105 1:29:17 357 Sean Ogle
89 1:23:42 204 Sam Inman 106 1:29:58 225 Mason Frank
90 1:24:23 298 Trent Hovensa 108 1:30:44 382 Miguel Martinez
91 1:24:45 289 Aaron Rimmer 109 1:31:35 201 David Butler
92 1:24:49 281 Ken Keister 110 1:31:42 241 Matt Ogle
93 1:26:18 222 Dennis Staley 112 1:32:20 366 Vern Small
94 1:26:26 249 Stephen Wassinger 113 1:32:39 255 Mike Fuller
95 1:26:30 277 Butch McGuire 114 1:33:35 208 Sam Holt
96 1:26:37 290 Steuart Fish 115 1:33:36 215 Matt Kitzman
97 1:26:57 158 Lori Antolec 119 1:34:47 273 Jeff Pearson
98 1:27:50 286 Otto Schmidtmann 120 1:34:49 291 Scott Wilson
99 1:27:52 288 Matthew Hall 121 1:34:52 375 Mark Braun
100 1:28:16 172 Katie Anderson 122 1:35:25 210 Jimmy Clere
101 1:28:30 257 Mark Zurbrick 124 1:37:41 250 Andrew Farish
102 1:28:34 233 Vitaly Gubarer 127 1:44:37 211 Jon Severson
103 1:28:48 387 Jurgem Leiser 128 1:44:44 244 Aaron Snider
104 1:28:54 227 Chris Lovely 129 1:44:59 207 Jason Kline
105 1:29:17 357 Sean Ogle 130 1:45:34 267 Phil VonHalce
106 1:29:58 225 Mason Frank 131 1:45:48 360 Joe Risavi
107 1:30:04 171 Kristi Olsen 132 1:46:09 292 Clint Kendrick
108 1:30:44 382 Miguel Martinez 133 1:46:20 224 Martin Frank
109 1:31:35 201 David Butler 134 1:47:14 254 Kurt Grimm
110 1:31:42 241 Matt Ogle 135 1:48:32 209 Ian Loughlin
111 1:32:19 175 Wendy Ingraham 137 1:49:39 372 Derek Jander
112 1:32:20 366 Vern Small 138 1:50:20 363 Eric Beutz
113 1:32:39 255 Mike Fuller 139 1:50:20 365 Jeffrey Bowman
114 1:33:35 208 Sam Holt 140 1:52:38 386 Danny Cake
115 1:33:36 215 Matt Kitzman 141 1:59:11 388 Chris Whittenbrink
116 1:34:05 310 Alan Johnson 149 DNF 212 Robert Klima
117 1:34:14 174 Alison Sandoval 150 DNF 230 Brett Jesperson
118 1:34:36 156 Twyla Gurlea 151 DNF 231 Bob Tinglestad
119 1:34:47 273 Jeff Pearson 152 DNF 253 Matthew Blanchard
120 1:34:49 291 Scott Wilson 153 DNF 260 Ryan Burnett
121 1:34:52 375 Mark Braun 154 DNF 264 Rob Kay
122 1:35:25 210 Jimmy Clere 155 DNF 265 Chad Devitt
123 1:36:28 163 Dina Klancir 156 DNF 268 Roger Haston
124 1:37:41 250 Andrew Farish 157 DNF 269 Chris Tackett
125 1:39:08 165 Amy Graysmith 158 DNF 272 John Williams
126 1:44:17 169 Jessi Rochel 159 DNF 278 Calvin Rickard
127 1:44:37 211 Jon Severson 160 DNF 279 Morrison Rickard
128 1:44:44 244 Aaron Snider 161 DNF 285 Brock Arends
129 1:44:59 207 Jason Kline 162 DNF 294 Brendan Brown
130 1:45:34 267 Phil VonHalce 163 DNF 297 Joakim Antos
131 1:45:48 360 Joe Risavi 164 DNF 353 Greg Besaw
132 1:46:09 292 Clint Kendrick 165 DNF 358 Kris Simons
133 1:46:20 224 Martin Frank 166 DNF 361 Jake Blevins
134 1:47:14 254 Kurt Grimm 167 DNF 368 Eric Durcell
135 1:48:32 209 Ian Loughlin 168 DNF 369 David Bonga
136 1:48:36 168 Emily Murray 169 DNF 371 Mark Young
137 1:49:39 372 Derek Jander 170 DNF 373 Eric Hewitt
138 1:50:20 363 Eric Beutz 171 DNF 385 Dawes Wilson
139 1:50:20 365 Jeffrey Bowman
140 1:52:38 386 Danny Cake
141 1:59:11 388 Chris Whittenbrink
142 1:59:28 180 Tracy Johnston
143 DNF 160 Heidi Dohse
144 DNF 164 Sandra Marticio
145 DNF 166 Eileen Brown
146 DNF 167 Susan McCotter
147 DNF 177 DNF – Taylor Dilly
148 DNF 178 Paula McNeil
149 DNF 212 Robert Klima
150 DNF 230 Brett Jesperson
151 DNF 231 Bob Tinglestad
152 DNF 253 Matthew Blanchard
153 DNF 260 Ryan Burnett
154 DNF 264 Rob Kay
155 DNF 265 Chad Devitt
156 DNF 268 Roger Haston
157 DNF 269 Chris Tackett
158 DNF 272 John Williams
159 DNF 278 Calvin Rickard
160 DNF 279 Morrison Rickard
161 DNF 285 Brock Arends
162 DNF 294 Brendan Brown
163 DNF 297 Joakim Antos
164 DNF 353 Greg Besaw
165 DNF 358 Kris Simons
166 DNF 361 Jake Blevins
167 DNF 368 Eric Durcell
168 DNF 369 David Bonga
169 DNF 371 Mark Young
170 DNF 373 Eric Hewitt
171 DNF 385 Dawes Wilson

2014 East Side Epic Results

Name Bib # Category Time Name Bib # Category Time
Cameron chambers 133 M 51:42:00 Chris plesko 303 SS 1:12:39
Jesse swift 142 M 1:01:02 Charlie koch 304 SS 1:25:30
Marvin Sandoval 131 M 1:03:00 Jonah creasy 306 SS 1:46:12
Cannon Shockley 155 M 1:03:43 Dave Nice 305 SS 2:28:05
Brad bingham 145 M 1:05:40
Wesley sandoval 141 M 1:05:57 Name Bib # Category Time
Mark wallace 140 M 1:07:42 Hannah williams 421 F 1:21:28
Brian hannon 134 M 1:08:24 Jill suarez 422 F 2:07:16
Cameron Millard 151 M 1:08:30 Emily murray 419 F 2:08:20
Aaron Provance 143 M 1:13:20 Desiree simon 420 F 2:28:00
Tim wells 137 M 1:13:32
John harman 138 M 1:18:19
Bill Henderson 153 M 1:18:34
Chris borton 148 M 1:19:24
Gavin Gunderson 154 M 1:22:28
Doug chambers 132 M 1:25:07
Kris simons 139 M 1:27:34
Keith liese 135 M 1:28:11
Stephen Wassinger 152 M 1:37:52
Mike bailey 146 M 1:39:18
Quinn Stauffer 150 M 1:39:39
Adam feltes 136 M 1:44:16
Ed poremba 149 M 1:46:50
Craig gooch 130 M 1:58:16
Jon severson 144 M 2:07:40
Mark braun 147 M DNF

2014 Mineral Belt Mayhem Results!

Riding in the shadow of a giant Dales Pale Ale can on Harrison Ave. 84 participants raced around the Mineral Belt Trail with 2 inches of fresh snow! Big thanks to Christy Lindh for grooming the course and all the other volunteers that make this series happen! Thank you Brian and Cycles of Life for being such a good host! See you April 12th for the East Side Epic!

1920316_10152298058207806_271662883_n

 

M NAME BIB # TIME SS NAME BIB # TIME
1 M Brad Bingham 73 1:00:26 1 SS Charlie Koch 302 1:17:13
2 M Cameron Chambers 85 1:00:31
3 M Travis Brown 72 1:00:49 F NAME BIB # TIME
4 M Adam Looney 93 1:04:05 1 F Chanda Lier 406 1:25:18
5 M Mark Wallace 107 1:07:12 2 F Carol Lucking 409 1:25:20
6 M Geoffrey Montague 63 1:08:10 3 F Sonja Evers 416 1:25:23
7 M Tim Lucking 78 1:08:20 4 F Roxanne Hall 418 1:28:10
8 M Wesley Sandoval 66 1:08:26 5 F Wendy Ingraham 417 1:30:26
9 M Brian Laiho 97 1:09:12 6 F Jen Barbour 413 1:40:10
10 M Marvin Sandoval 108 1:10:34 7 F Alison Sandoval 405 1:43:40
11 M Ryan Knobbe 116 1:11:18 8 F Emily Murray 404 1:43:52
12 M Jesse Swift 98 1:12:18 9 F Marjorie Conrad 414 1:43:54
13 M Kurt Ireland 99 1:14:26 10 F Janet Saxon 407 1:55:26
14 M Craig Farnum 111 1:15:00 11 F Susan McCotter 412 2:08:15
15 M Josh Colley 115 1:15:05 12 F Katie Anderson 415 2:14:13
16 M Bill Henderson 71 1:15:35 13 F Dona Wallace 410 2:38:40
17 M Ty Hall 126 1:16:22 14 F Lucy Bettis 408 DNF
18 M Travis Ekenberg 112 1:16:26 15 F Colleen Farnum 411 DNF
19 M Cameron Millard 129 1:17:00
20 M Chris Albers 121 1:17:24
21 M Trevor Webb 89 1:19:05
22 M Tim Wells 90 1:19:16
23 M Jeff Doss 81 1:20:25
24 M Aaron Provance 100 1:20:56
25 M Christian Williams 94 1:21:23
26 M Michael Lamond 74 1:21:40
27 M Randall Toltzman 87 1:21:40
28 M Jim Simons 80 1:23:00
29 M Michael Maxwell 125 1:23:10
30 M Shawn Weatherill 62 1:23:14
31 M Pat White 122 1:24:38
32 M Shawn Gillis 118 1:25:10
33 M Jim Arnold 69 1:25:50
34 M David Nice 88 1:25:59
35 M Kris Simons 103 1:26:05
36 M Chris Borton 106 1:27:20
37 M Ernie Johnson 113 1:27:30
38 M Remo Marti 114 1:27:42
39 M Gavin Gunderson 102 1:27:48
40 M Karl Krupp 105 1:27:52
41 M Greg Blakely 128 1:28:13
42 M Mike Bohlen 109 1:28:15
43 M Tyler Watkins 123 1:29:56
44 M Stephen Wassinger 75 1:30:00
45 M Jon Severson 84 1:31:02
46 M Larry Manchester 104 1:31:02
47 M Robert Radicevich 82 1:31:08
48 M Scott Eckstrom 68 1:31:28
49 M Greg Miranda 92 1:32:40
50 M Chris Driscol 77 1:33:00
51 M Adam feltes 91 1:33:05
52 M Matt Dahman 95 1:33:08
53 M Albert Lake 67 1:37:10
54 M Chris Gardner 86 1:38:04
55 M Richard Omeara 119 1:38:41
56 M Ted Cier 64 1:39:42
57 M Chad Devitt 65 1:40:00
58 M Todd Huck 127 1:41:14
59 M Philip Thomas 83 1:43:00
60 M Camden Gillis 117 1:43:43
61 M Vernon Smith 124 1:43:43
62 M Matthew Hall 110 1:49:36
63 M Cheyenne Mendoza 70 1:51:40
64 M Gary Rossmiller 101 1:51:50
65 M Stuart Francone 76 1:52:19
66 M Gene Scholes 79 1:55:36
67 M Sam Inman 96 DNF
68 M Brian VanVoohees 120 DNF

2014 Tennessee Pass Night Jam Results

TP Night JAm 003

Thanks to all 67 racers who came and raced in the snowy conditions! Huge thanks to the cast and crew at Tennessee Pass Cookhouse and Nordic Center for being such awesome hosts!

Here are the results!

PLACE F NAME BIB # TIME
1 F Ann Stanek 403 1:03:01
2 F Roxanne Hall 400 1:11:21
3 F Katie Anderson 402 1:29:49
4 F Susan McCotter 401 1:48:41
PLACE SS NAME BIB # TIME
1 SS Chris Plesko 18 49:39:00
2 SS Pete Woods 301 52:59:00
3 SS Charlie Koch 300 DNF
PLACE M NAME BIB # TIME
1 M Travis Brown 15 40:05:00
2 M Brad Bingham 16 40:18:00
3 M Cameron Chambers 31 40:20:00
4 M Marvin Sandoval 17 45:27:00
5 M Shad Schreiner 30 45:45:00
6 M Cannon Shockley 47 47:09:00
7 M Chris Plesko 18 49:39:00
8 M Tim Lucking 34 50:07:00
9 M Mark Wallace 35 50:14:00
10 M Ty Hall 8 53:08:00
11 M Cameron Millard 54 53:12:00
12 M Ryan Knobbe 26 53:18:00
13 M James Ford 3 55:24:00
14 M Nick Armano 29 57:29:00
15 M Christian Williams 9 57:31:00
16 M Scott Radek 50 57:37:00
17 M Tim Wells 1 57:57:00
18 M Ed Oliver 49 1:01:40
19 M Kurt Ireland 51 1:02:55
20 M Aaron Provance 48 1:03:08
21 M Bill Henderson 58 1:04:04
22 M Dave Nice 33 1:04:50
23 M Jim Tyerech 11 1:06:35
24 M Pat White 55 1:08:16
25 M Trevor Webb 7 1:09:47
26 M Jeff Steinhoff 13 1:11:20
27 M Sam Brown 45 1:11:33
28 M Mark Stevens 12 1:11:35
29 M Ken Davis 4 1:12:08
30 M Charlie Jahner 37 1:14:34
31 M Dawes Wilson 28 1:15:17
32 M Gavin Gunderson 53 1:15:45
33 M Tyler Watkins 42 1:16:50
34 M Marshall Miller 43 1:17:21
35 M Brian VanVoorhes 38 1:18:27
36 M Michael Bailey 19 1:18:30
37 M Kris Simons 10 1:19:38
38 M Nate Whitman 60 1:20:24
39 M Eric VanVoorhes 39 1:20:34
40 M Stephen Wassinger 41 1:20:51
41 M Greg Blakely 57 1:27:18
42 M Chris Driscol 52 1:28:20
43 M Tim Swaner 14 1:28:24
44 M Tom Calvin 6 1:28:28
45 M Brent Sites 22 1:29:30
46 M Jim Ishman 46 1:30:06
47 M Kaden Sites 23 1:31:52
48 M Chad Devitt 40 1:33:41
49 M Voytek Bobak 36 1:34:52
50 M Adam Feltes 2 1:35:50
51 M Randy Ballheim 25 1:38:26
52 M Andrew Henriksen 5 1:39:57
53 M Charlie Brown 44 1:41:54
54 M Hayden Mellsop 24 1:42:21
55 M Gary Rossmiller 32 1:43:04
56 M Daniel Boromisa 59 1:43:12
57 M Ryan Vanschoonhoven 56 1:44:00
58 M Mark Beaudry 21 DNF
59 M Shawn Gillis 27 DNF
60 M Stephen Clements 61 DNF

2014 WinterBike at Cooper Mtn Results

Here are the results, if you see something that may be wrong please email sterlingmudge@gmail.com

Mens Results Womens Results Singlespeed Results
Mens
Place Name Bib # Time Place Name Bib # Time Place Name Bib # Time
1 Brad Bingham 438 40:42:00 1 Amy Gray Smith 475 58:56:00 1 Chris Plesko 267 50:20:00
2 Wesley Sandoval 476 43:50:00 2 Lindsay Jones 298 59:31:00 2 Pete Woods 434 54:43:00
3 Jeffery Hanson 435 45:40:00 3 Stephanie Jones 455 1:04:08 3 Bernie Romero 301 1:01:56
4 Chris Brandt 431 46:15:00 4 Carolyn Frazee 453 1:06:21 4 Daniel Byrd 300 1:05:45
5 Jesse Swift 503 46:32:00 5 Beth Shaner 430 1:07:26 5 Jonah Creasey 505 1:07:16
6 Chad Melis 403 46:37:00 6 Vicki Kerr 263 1:08:08 6 Andrew Smith 253 1:09:53
7 Scott Archer 483 46:38:00 7 Molly Leonard 285 1:13:45 7 David Nice 258 1:11:56
8 Scott Radek 508 47:03:00 8 Rebecca Watt 496 1:14:53 Augustus Villegas 304
9 Steven Pon 481 47:07:00 9 Ashlee Wilson 457 1:16:30 Santiago Frias Silva 303
10 Ryan Knobbe 270 47:30:00 10 Erin Wilson 462 1:20:13
11 Kurt Ireland 439 47:44:00 Victoria Cook 274 DNF
12 Tim Lucking 294 47:49:00 Kim Van Wagner 289 DNF
13 Darron Cheek 250 48:22:00 Wendy Ingrahm 432 DNF
14 Brian Hannon 437 48:25:00 Julie Diebews 433 DNF
15 Christian Ravelo 466 49:04:00 Hannah Williams 440 DNF
16 Tim Assor 293 49:07:00 Kendra Lee 442 DNF
17 Nat Ross 257 49:22:00 Melissa St. Jean 295
18 Jonathon Davis 499 49:26:00
19 Mike Sivertson 406 49:53:00
20 Brett Billings 472 51:10:00
21 Tyler Moran 268 52:06:00
22 Aaron Provance 446 52:09:00
23 Cameron Millard 480 52:11:00
24 Scott Eckstrom 506 52:18:00
25 Kevin Shelden 452 52:25:00
26 James Ford 401 53:17:00
27 Pat White 474 53:39:00
28 Dylan Zurfluh 269 53:50:00
29 Larry Manchester 292 54:45:00
30 Bill Henderson 495 55:11:00
31 Quinn Stauffer 458 55:47:00
32 Chris Albers 486 55:53:00
33 Peter Thomas 443 56:03:00
34 Scott Salstrand 277 56:07:00
35 Jim Tyerech 255 56:17:00
36 Mike Lamond 487 56:18:00
37 Sean Riley 429 56:41:00
38 Randy Tuggle 280 56:42:00
39 Ty Edwards 491 56:58:00
40 Lou Laurina 465 57:30:00
41 Robert Brudenell 485 57:56:00
42 Brett Ebben 272 57:59:00
43 David Link 288 58:58:00
44 Ernie Johnson 471 59:22:00
45 Jack Serra 291 59:55:00
46 Michael Maxwell 477 1:00:54
47 Remo Marti 470 1:01:09
48 Greg Walentas 459 1:01:17
49 Brett Tomlinson 468 1:01:26
50 Thomas Seybold 449 1:01:29
51 Warren Rohal 448 1:01:30
52 Scott Vinas 464 1:01:33
53 Greg Besaw 252 1:01:50
54 Bernie 301 1:01:56
55 Kris Simons 307 1:01:58
56 Mark Hasten 482 1:02:24
57 Greg Stanton 276 1:02:31
58 Brian Seely 284 1:03:06
59 Scott Swandal 305 1:03:10
60 Ryan Vanschoonhoven 266 1:03:31
61 Brad Hancock 405 1:03:32
62 Michael Bailey 402 1:04:05
63 Greg Blakely 478 1:04:07
64 Jeremy Thompson 286 1:04:08
65 Brian Huggins 271 1:04:09
66 Richard O’Mara 492 1:04:20
67 Daniel Balderrama 308 1:04:28
68 Charlie Jahner 451 1:04:59
69 Matt Cooper 467 1:05:44
70 Marshall Miller 300 1:05:45
71 Chris Anderson 463 1:06:10
72 Gary Gomulinski 261 1:06:19
73 Keith Amodio 445 1:06:20
74 Derek Sardinta 281 1:06:41
75 Ken Davis 259 1:06:47
76 Ken Keister 282 1:07:30
77 Robert Hufnagel 473 1:07:45
78 Steve Perkins 461 1:08:05
79 Tony Maday 497 1:08:31
80 Camden Gillis 493 1:08:33
81 Adam Johnson 469 1:09:08
82 Chris Waggett 279 1:09:11
83 Chad Devitt 297 1:09:33
84 Karl Krupp 450 1:09:33
85 Dawes Wilson 302 1:09:55
86 Dale Vonwagner 290 1:10:29
87 Voytek Bobak 460 1:10:40
88 Eric Johnson 484 1:10:54
89 Miguel Martinez 260 1:11:00
90 Craig Bouck 264 1:11:03
91 Butch Mcguire 454 1:11:05
92 Dave Elphingstone 489 1:11:11
93 Tyler Boyd 254 1:11:12
94 Jeff Pearson 479 1:11:38
95 Matthew Hall 502 1:11:45
96 Mark 507 1:12:01
97 Zac Meseke 283 1:12:26
98 Andrew Voth 456 1:13:55
99 Scott Buckler 287 1:14:51
100 Jim Ishman 273 1:15:02
101 Shaun Gillis 494 1:15:15
102 Frank Buono 296 1:17:04
103 Jeremy Rudolf 400 1:17:25
104 Matt Kitzman 278 1:17:32
105 Matthew Leonard 299 1:18:42
106 Tanner Davis 500 1:19:41
107 Wells Sawer 504 1:28:27
108 Mark Braun 444 1:34:14
109 John Braun 447 1:34:27
Eric Hewett 256 DNF
Ray Titus 262 DNF
Gary Rossmiller 265 DNF
David Orozio 275 DNF
Grant Bevee 441 DNF
Luke Elphingstone 490 DNF
Phil Hackbarth 399
Tristan Tobankay 404
Kyle Richards 251
Kasey McCurdy 436
Seth Michael 488
Ian Laughlin 498
Mike Powers 501
Paul Wiggins 309

2013 East Side Epic Results!

With a solid course in the morning and a slushy course in the afternoon 25 brave souls duked it out and rode through some great terrain with burly ascents and gnarly descents.

This brings the 2013 Leadville Winter Mountain Bike Series to a close till next year. May everybody ride a lot this summer and help build trail somewhere! Thanks for supporting our series!

Logo banner

Results:

Name Time Bib #
Maxfield Lafortune 1:10:17 421
Chad Melis 1:10:18 411
Jesse Swift 1:10:27 417
Jerry Oliver 1:13:42 412
Chris Albers 1:19:09 414 *
Mark Wallace 1:24:12 248
Randy Tuggle 1:25:45 420
John Harman 1:34:54 416
Brian VanVoorhees 1:37:45 415
Stephen Angster 1:39:10 418
Ken Keister 1:42:23 424
Matt Cooper 1:42:38 413
Tim Walker 1:49:19 425
Charlie Koch 1:51:38 409 *
Charlie Jahner 2:02:16 422
Voytek Bobak 2:05:54 419
Antonio Gonzalez 2:09:35 427 *
Kris Simons 2:10:00 410
Miguel Martinez 2:21:06 407 *
Doc Wenmark 2:24:08 423 *
Tim Koch 2:30:36 408 *
Ed Poremba 2:46:04 428
* Leadvilleite
  • RIDE OUR TRAILS!

    Timberline Trails on Trailforks.com